aviador You're here:

PAOO Decoded Metar

TOKSOOK BAY in AK, USA
Report Time2017-08-22 03:06:00
UTC Time2017-08-22 03:16:54
Flight Rules mvfr MVFR
Wind260° at 15 kt
W.Decomp.*RWY 16: 0.5 kt HW 15.0 kt RCW
W.Rank260° ranks 30
Current wind is above 260° avg. (11.4)
Visibility9999 m
Phenomena:N/A
Clouds:Overcast 015 Hf
Expected CloudBase > 1,200 ft AGL from Temp-Dew spread
Ceiling1,500 ft
Temp12°C (ISA -3)
Dew Point09°C (82% RH)
AAT6.4°C
QNH1012 hPa
Density Alt-95 ft
Elevation59 ft
Report Wrong Elevation
Raw Report
PAOO 220306Z AUTO 26015KT 10SM OVC015 12/09 A2988 RMK AO2=

Extra information for PAOO:More info

Metar Taf Metar & Taf Last 4 Metars F.Rules Stats Wind Profile Meteogram Temp Stats Airport Information Weather charts Add Link Nearby VenuesMetar ALERT Operation Metar Decoded Social comments

AIRNAV info for PAOO